Kintore, United Kingdom
Current Conditions -  °F | °C
As of 3:20 PM on Saturday 25 Oct 2014 (Local Time) from EGPD Reporting Station
Scattered Clouds Scattered Clouds  
Wind Chill: 13°   Ceiling: Unl
Heat Index: 13°   Visibility: 6mi
Dew Point:   Wind: 17mph
Humidity: 67%   Direction: 210°SSW
Pressure: 29.53"   Gusts: NA
Location:  57.24°N, 2.35°W
Report Text: EGPD 251420Z 21015KT 9999 SCT037 SCT045 13/07 Q1000 NOSIG
Loading
Personal Weather Stations






























Interactive Weather Map
Tropical Storm Tracking
New forecast layout! Learn more

10-Day Weather Forecast

Advertisements
Track Severe Weather on mobile